sensor_id;sensor_type;location;lat;lon;timestamp;P1;durP1;ratioP1;P2;durP2;ratioP2
68377;SDS011;55322;48.146;11.516;2023-03-20T00:01:37;7.73;;;3.77;;
68377;SDS011;55322;48.146;11.516;2023-03-20T00:04:02;7.73;;;3.60;;
68377;SDS011;55322;48.146;11.516;2023-03-20T00:06:28;7.97;;;3.77;;
68377;SDS011;55322;48.146;11.516;2023-03-20T00:08:53;8.70;;;3.73;;
68377;SDS011;55322;48.146;11.516;2023-03-20T00:11:24;7.20;;;3.78;;
68377;SDS011;55322;48.146;11.516;2023-03-20T00:13:51;7.20;;;3.42;;
68377;SDS011;55322;48.146;11.516;2023-03-20T00:16:18;7.77;;;3.63;;
68377;SDS011;55322;48.146;11.516;2023-03-20T00:18:44;8.65;;;3.92;;
68377;SDS011;55322;48.146;11.516;2023-03-20T00:21:14;6.90;;;3.80;;
68377;SDS011;55322;48.146;11.516;2023-03-20T00:23:41;8.20;;;4.07;;
68377;SDS011;55322;48.146;11.516;2023-03-20T00:26:08;8.00;;;3.27;;
68377;SDS011;55322;48.146;11.516;2023-03-20T00:28:41;9.15;;;3.50;;
68377;SDS011;55322;48.146;11.516;2023-03-20T00:31:13;7.80;;;3.85;;
68377;SDS011;55322;48.146;11.516;2023-03-20T00:33:42;7.85;;;3.50;;
68377;SDS011;55322;48.146;11.516;2023-03-20T00:36:08;6.93;;;3.67;;
68377;SDS011;55322;48.146;11.516;2023-03-20T00:38:33;7.43;;;3.57;;
68377;SDS011;55322;48.146;11.516;2023-03-20T00:40:59;7.80;;;3.90;;
68377;SDS011;55322;48.146;11.516;2023-03-20T00:43:24;7.57;;;3.10;;
68377;SDS011;55322;48.146;11.516;2023-03-20T00:45:49;7.30;;;3.33;;
68377;SDS011;55322;48.146;11.516;2023-03-20T00:48:15;7.00;;;3.20;;
68377;SDS011;55322;48.146;11.516;2023-03-20T00:50:43;7.93;;;3.70;;
68377;SDS011;55322;48.146;11.516;2023-03-20T00:53:09;6.83;;;3.50;;
68377;SDS011;55322;48.146;11.516;2023-03-20T00:55:35;7.95;;;3.88;;
68377;SDS011;55322;48.146;11.516;2023-03-20T00:58:03;6.28;;;3.08;;
68377;SDS011;55322;48.146;11.516;2023-03-20T01:00:32;6.93;;;3.45;;
68377;SDS011;55322;48.146;11.516;2023-03-20T01:03:00;7.77;;;3.50;;
68377;SDS011;55322;48.146;11.516;2023-03-20T01:05:27;6.45;;;3.17;;
68377;SDS011;55322;48.146;11.516;2023-03-20T01:07:53;6.22;;;3.05;;
68377;SDS011;55322;48.146;11.516;2023-03-20T01:10:18;6.80;;;3.50;;
68377;SDS011;55322;48.146;11.516;2023-03-20T01:12:44;7.17;;;3.40;;
68377;SDS011;55322;48.146;11.516;2023-03-20T01:15:18;6.50;;;3.10;;
68377;SDS011;55322;48.146;11.516;2023-03-20T01:17:45;8.38;;;3.20;;
68377;SDS011;55322;48.146;11.516;2023-03-20T01:20:19;6.73;;;3.10;;
68377;SDS011;55322;48.146;11.516;2023-03-20T01:22:52;6.95;;;3.08;;
68377;SDS011;55322;48.146;11.516;2023-03-20T01:25:18;6.40;;;2.55;;
68377;SDS011;55322;48.146;11.516;2023-03-20T01:27:46;7.07;;;2.80;;
68377;SDS011;55322;48.146;11.516;2023-03-20T01:30:19;6.53;;;2.53;;
68377;SDS011;55322;48.146;11.516;2023-03-20T01:32:49;6.60;;;2.60;;
68377;SDS011;55322;48.146;11.516;2023-03-20T01:35:16;5.97;;;2.85;;
68377;SDS011;55322;48.146;11.516;2023-03-20T01:37:44;5.97;;;2.60;;
68377;SDS011;55322;48.146;11.516;2023-03-20T01:40:16;6.00;;;2.60;;
68377;SDS011;55322;48.146;11.516;2023-03-20T01:42:51;5.72;;;2.53;;
68377;SDS011;55322;48.146;11.516;2023-03-20T01:45:18;7.57;;;2.78;;
68377;SDS011;55322;48.146;11.516;2023-03-20T01:47:48;6.22;;;2.70;;
68377;SDS011;55322;48.146;11.516;2023-03-20T01:50:24;6.40;;;2.47;;
68377;SDS011;55322;48.146;11.516;2023-03-20T01:53:06;6.55;;;2.65;;
68377;SDS011;55322;48.146;11.516;2023-03-20T01:55:36;5.83;;;2.30;;
68377;SDS011;55322;48.146;11.516;2023-03-20T01:58:06;6.38;;;2.58;;
68377;SDS011;55322;48.146;11.516;2023-03-20T02:00:34;5.53;;;2.40;;
68377;SDS011;55322;48.146;11.516;2023-03-20T02:03:00;6.60;;;2.35;;
68377;SDS011;55322;48.146;11.516;2023-03-20T02:05:27;5.20;;;2.08;;
68377;SDS011;55322;48.146;11.516;2023-03-20T02:07:55;5.63;;;2.17;;
68377;SDS011;55322;48.146;11.516;2023-03-20T02:10:29;5.45;;;1.90;;
68377;SDS011;55322;48.146;11.516;2023-03-20T02:12:56;6.33;;;2.00;;
68377;SDS011;55322;48.146;11.516;2023-03-20T02:15:24;5.85;;;1.90;;
68377;SDS011;55322;48.146;11.516;2023-03-20T02:17:51;5.57;;;2.17;;
68377;SDS011;55322;48.146;11.516;2023-03-20T02:31:51;5.40;;;1.98;;
68377;SDS011;55322;48.146;11.516;2023-03-20T02:34:27;4.88;;;1.70;;
68377;SDS011;55322;48.146;11.516;2023-03-20T02:42:52;5.65;;;1.60;;
68377;SDS011;55322;48.146;11.516;2023-03-20T02:45:28;6.38;;;1.73;;
68377;SDS011;55322;48.146;11.516;2023-03-20T02:51:09;4.82;;;1.45;;
68377;SDS011;55322;48.146;11.516;2023-03-20T02:53:50;4.87;;;1.43;;
68377;SDS011;55322;48.146;11.516;2023-03-20T03:01:30;5.63;;;1.50;;
68377;SDS011;55322;48.146;11.516;2023-03-20T03:04:00;4.78;;;1.30;;
68377;SDS011;55322;48.146;11.516;2023-03-20T03:06:31;5.50;;;1.73;;
68377;SDS011;55322;48.146;11.516;2023-03-20T03:09:07;4.90;;;1.50;;
68377;SDS011;55322;48.146;11.516;2023-03-20T03:11:37;5.10;;;1.77;;
68377;SDS011;55322;48.146;11.516;2023-03-20T03:14:07;5.60;;;1.58;;
68377;SDS011;55322;48.146;11.516;2023-03-20T03:16:41;6.30;;;1.90;;
68377;SDS011;55322;48.146;11.516;2023-03-20T03:19:11;5.37;;;1.40;;
68377;SDS011;55322;48.146;11.516;2023-03-20T03:21:40;4.95;;;1.38;;
68377;SDS011;55322;48.146;11.516;2023-03-20T03:24:13;5.30;;;1.40;;
68377;SDS011;55322;48.146;11.516;2023-03-20T03:26:51;4.50;;;1.43;;
68377;SDS011;55322;48.146;11.516;2023-03-20T03:29:17;4.60;;;1.40;;
68377;SDS011;55322;48.146;11.516;2023-03-20T03:31:43;6.13;;;1.80;;
68377;SDS011;55322;48.146;11.516;2023-03-20T03:34:14;5.43;;;1.60;;
68377;SDS011;55322;48.146;11.516;2023-03-20T03:42:19;5.55;;;1.63;;
68377;SDS011;55322;48.146;11.516;2023-03-20T03:44:51;5.28;;;1.70;;
68377;SDS011;55322;48.146;11.516;2023-03-20T03:47:22;5.40;;;1.80;;
68377;SDS011;55322;48.146;11.516;2023-03-20T03:52:22;4.63;;;1.60;;
68377;SDS011;55322;48.146;11.516;2023-03-20T03:54:54;5.47;;;1.67;;
68377;SDS011;55322;48.146;11.516;2023-03-20T03:57:27;5.40;;;1.67;;
68377;SDS011;55322;48.146;11.516;2023-03-20T03:59:56;5.10;;;1.60;;
68377;SDS011;55322;48.146;11.516;2023-03-20T04:02:22;6.55;;;1.90;;
68377;SDS011;55322;48.146;11.516;2023-03-20T04:04:49;5.60;;;2.03;;
68377;SDS011;55322;48.146;11.516;2023-03-20T04:07:16;6.97;;;2.13;;
68377;SDS011;55322;48.146;11.516;2023-03-20T04:09:42;5.53;;;2.00;;
68377;SDS011;55322;48.146;11.516;2023-03-20T04:14:56;5.30;;;1.93;;
68377;SDS011;55322;48.146;11.516;2023-03-20T04:17:21;5.93;;;2.13;;
68377;SDS011;55322;48.146;11.516;2023-03-20T04:19:46;6.10;;;2.00;;
68377;SDS011;55322;48.146;11.516;2023-03-20T04:22:12;4.90;;;1.93;;
68377;SDS011;55322;48.146;11.516;2023-03-20T04:24:37;6.00;;;1.83;;
68377;SDS011;55322;48.146;11.516;2023-03-20T04:27:02;4.80;;;1.77;;
68377;SDS011;55322;48.146;11.516;2023-03-20T04:29:28;4.80;;;1.60;;
68377;SDS011;55322;48.146;11.516;2023-03-20T04:31:53;4.70;;;1.50;;
68377;SDS011;55322;48.146;11.516;2023-03-20T04:34:21;6.55;;;1.42;;
68377;SDS011;55322;48.146;11.516;2023-03-20T04:36:47;5.82;;;1.63;;
68377;SDS011;55322;48.146;11.516;2023-03-20T04:39:12;4.93;;;1.67;;
68377;SDS011;55322;48.146;11.516;2023-03-20T04:41:38;4.53;;;1.30;;
68377;SDS011;55322;48.146;11.516;2023-03-20T04:44:03;4.47;;;1.20;;
68377;SDS011;55322;48.146;11.516;2023-03-20T04:46:28;4.63;;;1.50;;
68377;SDS011;55322;48.146;11.516;2023-03-20T04:48:54;4.70;;;1.50;;
68377;SDS011;55322;48.146;11.516;2023-03-20T04:51:19;6.40;;;1.60;;
68377;SDS011;55322;48.146;11.516;2023-03-20T04:53:45;4.80;;;1.60;;
68377;SDS011;55322;48.146;11.516;2023-03-20T04:56:11;6.97;;;2.17;;
68377;SDS011;55322;48.146;11.516;2023-03-20T04:58:37;5.23;;;1.80;;
68377;SDS011;55322;48.146;11.516;2023-03-20T05:01:02;5.20;;;1.90;;
68377;SDS011;55322;48.146;11.516;2023-03-20T05:03:27;5.00;;;1.73;;
68377;SDS011;55322;48.146;11.516;2023-03-20T05:05:53;5.03;;;1.83;;
68377;SDS011;55322;48.146;11.516;2023-03-20T05:08:18;5.43;;;1.80;;
68377;SDS011;55322;48.146;11.516;2023-03-20T05:10:44;5.47;;;1.95;;
68377;SDS011;55322;48.146;11.516;2023-03-20T05:13:10;5.57;;;2.17;;
68377;SDS011;55322;48.146;11.516;2023-03-20T05:15:35;5.93;;;1.98;;
68377;SDS011;55322;48.146;11.516;2023-03-20T05:18:01;5.67;;;2.30;;
68377;SDS011;55322;48.146;11.516;2023-03-20T05:20:27;6.80;;;2.50;;
68377;SDS011;55322;48.146;11.516;2023-03-20T05:22:52;7.30;;;2.60;;
68377;SDS011;55322;48.146;11.516;2023-03-20T05:25:18;5.60;;;2.43;;
68377;SDS011;55322;48.146;11.516;2023-03-20T05:27:44;6.50;;;2.43;;
68377;SDS011;55322;48.146;11.516;2023-03-20T05:30:10;7.35;;;2.70;;
68377;SDS011;55322;48.146;11.516;2023-03-20T05:32:36;6.72;;;3.10;;
68377;SDS011;55322;48.146;11.516;2023-03-20T05:35:02;7.75;;;3.38;;
68377;SDS011;55322;48.146;11.516;2023-03-20T05:37:28;6.70;;;2.80;;
68377;SDS011;55322;48.146;11.516;2023-03-20T05:39:54;6.85;;;3.13;;
68377;SDS011;55322;48.146;11.516;2023-03-20T05:42:19;8.03;;;2.63;;
68377;SDS011;55322;48.146;11.516;2023-03-20T05:44:45;6.97;;;3.23;;
68377;SDS011;55322;48.146;11.516;2023-03-20T05:47:10;8.00;;;3.63;;
68377;SDS011;55322;48.146;11.516;2023-03-20T05:49:36;7.30;;;3.50;;
68377;SDS011;55322;48.146;11.516;2023-03-20T05:52:01;8.33;;;3.87;;
68377;SDS011;55322;48.146;11.516;2023-03-20T05:54:26;8.70;;;3.33;;
68377;SDS011;55322;48.146;11.516;2023-03-20T05:56:52;8.50;;;3.87;;
68377;SDS011;55322;48.146;11.516;2023-03-20T05:59:17;7.73;;;3.93;;
68377;SDS011;55322;48.146;11.516;2023-03-20T06:01:42;8.27;;;4.27;;
68377;SDS011;55322;48.146;11.516;2023-03-20T06:04:07;8.85;;;4.45;;
68377;SDS011;55322;48.146;11.516;2023-03-20T06:06:33;8.17;;;4.13;;
68377;SDS011;55322;48.146;11.516;2023-03-20T06:09:02;7.83;;;4.13;;
68377;SDS011;55322;48.146;11.516;2023-03-20T06:11:28;8.38;;;4.65;;
68377;SDS011;55322;48.146;11.516;2023-03-20T06:13:53;9.43;;;4.90;;
68377;SDS011;55322;48.146;11.516;2023-03-20T06:16:19;9.82;;;4.60;;
68377;SDS011;55322;48.146;11.516;2023-03-20T06:18:45;9.32;;;4.90;;
68377;SDS011;55322;48.146;11.516;2023-03-20T06:21:10;9.43;;;5.23;;
68377;SDS011;55322;48.146;11.516;2023-03-20T06:23:36;8.60;;;4.73;;
68377;SDS011;55322;48.146;11.516;2023-03-20T06:26:02;9.15;;;4.97;;
68377;SDS011;55322;48.146;11.516;2023-03-20T06:28:28;8.83;;;5.00;;
68377;SDS011;55322;48.146;11.516;2023-03-20T06:30:54;11.75;;;5.57;;
68377;SDS011;55322;48.146;11.516;2023-03-20T06:33:20;9.43;;;5.07;;
68377;SDS011;55322;48.146;11.516;2023-03-20T06:35:46;9.07;;;5.23;;
68377;SDS011;55322;48.146;11.516;2023-03-20T06:38:12;8.95;;;4.85;;
68377;SDS011;55322;48.146;11.516;2023-03-20T06:40:37;13.85;;;5.43;;
68377;SDS011;55322;48.146;11.516;2023-03-20T06:43:03;9.73;;;5.50;;
68377;SDS011;55322;48.146;11.516;2023-03-20T06:45:29;10.27;;;5.20;;
68377;SDS011;55322;48.146;11.516;2023-03-20T06:47:54;8.63;;;4.77;;
68377;SDS011;55322;48.146;11.516;2023-03-20T06:50:20;9.33;;;5.00;;
68377;SDS011;55322;48.146;11.516;2023-03-20T06:52:45;10.70;;;5.80;;
68377;SDS011;55322;48.146;11.516;2023-03-20T06:55:11;8.77;;;5.13;;
68377;SDS011;55322;48.146;11.516;2023-03-20T06:57:37;9.37;;;4.90;;
68377;SDS011;55322;48.146;11.516;2023-03-20T07:00:03;8.65;;;5.15;;
68377;SDS011;55322;48.146;11.516;2023-03-20T07:02:29;8.32;;;4.43;;
68377;SDS011;55322;48.146;11.516;2023-03-20T07:04:55;9.30;;;4.75;;
68377;SDS011;55322;48.146;11.516;2023-03-20T07:07:21;9.10;;;4.73;;
68377;SDS011;55322;48.146;11.516;2023-03-20T07:09:46;10.00;;;5.60;;
68377;SDS011;55322;48.146;11.516;2023-03-20T07:12:12;8.85;;;4.80;;
68377;SDS011;55322;48.146;11.516;2023-03-20T07:14:39;8.65;;;4.97;;
68377;SDS011;55322;48.146;11.516;2023-03-20T07:17:06;9.40;;;4.90;;
68377;SDS011;55322;48.146;11.516;2023-03-20T07:19:33;8.88;;;5.18;;
68377;SDS011;55322;48.146;11.516;2023-03-20T07:21:59;12.90;;;4.78;;
68377;SDS011;55322;48.146;11.516;2023-03-20T07:24:26;9.77;;;4.97;;
68377;SDS011;55322;48.146;11.516;2023-03-20T07:26:52;11.52;;;4.63;;
68377;SDS011;55322;48.146;11.516;2023-03-20T07:29:17;8.37;;;4.70;;
68377;SDS011;55322;48.146;11.516;2023-03-20T07:31:42;10.23;;;5.17;;
68377;SDS011;55322;48.146;11.516;2023-03-20T07:34:08;10.23;;;5.10;;
68377;SDS011;55322;48.146;11.516;2023-03-20T07:36:33;8.90;;;4.87;;
68377;SDS011;55322;48.146;11.516;2023-03-20T07:38:58;8.73;;;4.80;;
68377;SDS011;55322;48.146;11.516;2023-03-20T07:41:24;10.00;;;4.63;;
68377;SDS011;55322;48.146;11.516;2023-03-20T07:43:49;8.23;;;4.37;;
68377;SDS011;55322;48.146;11.516;2023-03-20T07:46:15;7.33;;;3.80;;
68377;SDS011;55322;48.146;11.516;2023-03-20T07:48:40;8.40;;;4.30;;
68377;SDS011;55322;48.146;11.516;2023-03-20T07:51:05;7.70;;;4.40;;
68377;SDS011;55322;48.146;11.516;2023-03-20T07:53:31;7.70;;;3.75;;
68377;SDS011;55322;48.146;11.516;2023-03-20T07:55:56;7.70;;;4.13;;
68377;SDS011;55322;48.146;11.516;2023-03-20T07:58:21;8.87;;;4.30;;
68377;SDS011;55322;48.146;11.516;2023-03-20T08:00:47;7.70;;;3.97;;
68377;SDS011;55322;48.146;11.516;2023-03-20T08:03:12;8.23;;;4.03;;
68377;SDS011;55322;48.146;11.516;2023-03-20T08:05:37;7.90;;;3.60;;
68377;SDS011;55322;48.146;11.516;2023-03-20T08:08:03;7.57;;;3.92;;
68377;SDS011;55322;48.146;11.516;2023-03-20T08:10:28;8.10;;;4.33;;
68377;SDS011;55322;48.146;11.516;2023-03-20T08:12:54;7.57;;;3.80;;
68377;SDS011;55322;48.146;11.516;2023-03-20T08:15:20;8.32;;;3.75;;
68377;SDS011;55322;48.146;11.516;2023-03-20T08:17:46;8.13;;;3.53;;
68377;SDS011;55322;48.146;11.516;2023-03-20T08:20:12;9.47;;;3.90;;
68377;SDS011;55322;48.146;11.516;2023-03-20T08:22:38;7.15;;;3.80;;
68377;SDS011;55322;48.146;11.516;2023-03-20T08:25:04;6.60;;;3.37;;
68377;SDS011;55322;48.146;11.516;2023-03-20T08:27:32;8.48;;;3.97;;
68377;SDS011;55322;48.146;11.516;2023-03-20T08:29:57;7.20;;;3.70;;
68377;SDS011;55322;48.146;11.516;2023-03-20T08:32:23;6.37;;;3.27;;
68377;SDS011;55322;48.146;11.516;2023-03-20T08:34:50;7.20;;;3.70;;
68377;SDS011;55322;48.146;11.516;2023-03-20T08:37:15;7.03;;;3.60;;
68377;SDS011;55322;48.146;11.516;2023-03-20T08:39:41;7.23;;;3.53;;
68377;SDS011;55322;48.146;11.516;2023-03-20T08:42:06;9.80;;;3.70;;
68377;SDS011;55322;48.146;11.516;2023-03-20T08:44:32;8.43;;;3.97;;
68377;SDS011;55322;48.146;11.516;2023-03-20T08:46:57;8.77;;;3.90;;
68377;SDS011;55322;48.146;11.516;2023-03-20T08:49:23;6.20;;;2.90;;
68377;SDS011;55322;48.146;11.516;2023-03-20T08:51:48;6.07;;;2.87;;
68377;SDS011;55322;48.146;11.516;2023-03-20T08:54:14;6.85;;;3.08;;
68377;SDS011;55322;48.146;11.516;2023-03-20T08:56:42;7.65;;;3.33;;
68377;SDS011;55322;48.146;11.516;2023-03-20T08:59:08;7.03;;;2.90;;
68377;SDS011;55322;48.146;11.516;2023-03-20T09:01:33;6.47;;;2.67;;
68377;SDS011;55322;48.146;11.516;2023-03-20T09:03:58;6.23;;;2.97;;
68377;SDS011;55322;48.146;11.516;2023-03-20T09:06:24;6.15;;;2.78;;
68377;SDS011;55322;48.146;11.516;2023-03-20T09:08:49;7.13;;;3.00;;
68377;SDS011;55322;48.146;11.516;2023-03-20T09:11:15;6.40;;;2.87;;
68377;SDS011;55322;48.146;11.516;2023-03-20T09:13:40;6.35;;;3.05;;
68377;SDS011;55322;48.146;11.516;2023-03-20T09:16:06;8.00;;;3.10;;
68377;SDS011;55322;48.146;11.516;2023-03-20T09:18:31;5.93;;;2.80;;
68377;SDS011;55322;48.146;11.516;2023-03-20T09:20:57;5.50;;;2.50;;
68377;SDS011;55322;48.146;11.516;2023-03-20T09:23:22;5.93;;;2.50;;
68377;SDS011;55322;48.146;11.516;2023-03-20T09:25:47;5.80;;;2.30;;
68377;SDS011;55322;48.146;11.516;2023-03-20T09:28:13;5.27;;;1.73;;
68377;SDS011;55322;48.146;11.516;2023-03-20T09:30:38;4.90;;;1.60;;
68377;SDS011;55322;48.146;11.516;2023-03-20T09:33:04;5.45;;;1.90;;
68377;SDS011;55322;48.146;11.516;2023-03-20T09:35:30;5.20;;;2.10;;
68377;SDS011;55322;48.146;11.516;2023-03-20T09:37:55;5.20;;;2.00;;
68377;SDS011;55322;48.146;11.516;2023-03-20T09:43:17;5.47;;;1.67;;
68377;SDS011;55322;48.146;11.516;2023-03-20T09:45:51;4.60;;;1.60;;
68377;SDS011;55322;48.146;11.516;2023-03-20T09:48:32;4.87;;;1.80;;
68377;SDS011;55322;48.146;11.516;2023-03-20T09:53:57;5.98;;;1.98;;
68377;SDS011;55322;48.146;11.516;2023-03-20T09:56:29;4.90;;;1.67;;
68377;SDS011;55322;48.146;11.516;2023-03-20T09:58:56;4.90;;;1.80;;
68377;SDS011;55322;48.146;11.516;2023-03-20T10:01:25;5.63;;;1.60;;
68377;SDS011;55322;48.146;11.516;2023-03-20T10:03:58;5.25;;;1.70;;
68377;SDS011;55322;48.146;11.516;2023-03-20T10:06:26;5.50;;;1.90;;
68377;SDS011;55322;48.146;11.516;2023-03-20T10:08:58;5.10;;;1.95;;
68377;SDS011;55322;48.146;11.516;2023-03-20T10:17:02;5.88;;;1.60;;
68377;SDS011;55322;48.146;11.516;2023-03-20T10:24:59;3.65;;;0.77;;
68377;SDS011;55322;48.146;11.516;2023-03-20T10:27:38;3.60;;;0.77;;
68377;SDS011;55322;48.146;11.516;2023-03-20T10:30:20;3.58;;;0.90;;
68377;SDS011;55322;48.146;11.516;2023-03-20T10:38:30;3.75;;;0.90;;
68377;SDS011;55322;48.146;11.516;2023-03-20T10:41:08;3.88;;;0.70;;
68377;SDS011;55322;48.146;11.516;2023-03-20T10:43:39;5.03;;;1.27;;
68377;SDS011;55322;48.146;11.516;2023-03-20T10:46:07;3.97;;;0.93;;
68377;SDS011;55322;48.146;11.516;2023-03-20T10:48:36;3.50;;;0.70;;
68377;SDS011;55322;48.146;11.516;2023-03-20T10:51:05;3.80;;;0.90;;
68377;SDS011;55322;48.146;11.516;2023-03-20T10:53:46;3.42;;;0.70;;
68377;SDS011;55322;48.146;11.516;2023-03-20T10:56:15;3.60;;;0.70;;
68377;SDS011;55322;48.146;11.516;2023-03-20T10:58:48;3.40;;;0.70;;
68377;SDS011;55322;48.146;11.516;2023-03-20T11:01:18;5.43;;;0.70;;
68377;SDS011;55322;48.146;11.516;2023-03-20T11:03:44;4.75;;;0.80;;
68377;SDS011;55322;48.146;11.516;2023-03-20T11:06:12;3.33;;;0.70;;
68377;SDS011;55322;48.146;11.516;2023-03-20T11:08:50;3.55;;;0.90;;
68377;SDS011;55322;48.146;11.516;2023-03-20T11:11:21;3.75;;;0.90;;
68377;SDS011;55322;48.146;11.516;2023-03-20T11:13:48;4.10;;;0.80;;
68377;SDS011;55322;48.146;11.516;2023-03-20T11:16:17;3.80;;;0.87;;
68377;SDS011;55322;48.146;11.516;2023-03-20T11:18:48;3.97;;;0.70;;
68377;SDS011;55322;48.146;11.516;2023-03-20T11:21:17;3.57;;;0.80;;
68377;SDS011;55322;48.146;11.516;2023-03-20T11:23:51;5.25;;;1.00;;
68377;SDS011;55322;48.146;11.516;2023-03-20T11:26:39;3.90;;;0.90;;
68377;SDS011;55322;48.146;11.516;2023-03-20T11:29:06;4.60;;;0.80;;
68377;SDS011;55322;48.146;11.516;2023-03-20T11:31:38;3.90;;;0.98;;
68377;SDS011;55322;48.146;11.516;2023-03-20T11:36:35;3.45;;;0.90;;
68377;SDS011;55322;48.146;11.516;2023-03-20T11:39:05;4.80;;;0.90;;
68377;SDS011;55322;48.146;11.516;2023-03-20T11:41:46;3.97;;;0.80;;
68377;SDS011;55322;48.146;11.516;2023-03-20T11:47:05;3.80;;;1.00;;
68377;SDS011;55322;48.146;11.516;2023-03-20T11:52:14;4.80;;;0.90;;
68377;SDS011;55322;48.146;11.516;2023-03-20T11:54:45;4.00;;;0.95;;
68377;SDS011;55322;48.146;11.516;2023-03-20T12:02:35;4.00;;;0.80;;
68377;SDS011;55322;48.146;11.516;2023-03-20T12:05:16;3.85;;;0.85;;
68377;SDS011;55322;48.146;11.516;2023-03-20T12:07:47;3.58;;;0.90;;
68377;SDS011;55322;48.146;11.516;2023-03-20T12:10:17;3.67;;;1.00;;
68377;SDS011;55322;48.146;11.516;2023-03-20T12:12:56;4.03;;;1.00;;
68377;SDS011;55322;48.146;11.516;2023-03-20T12:15:30;4.32;;;0.90;;
68377;SDS011;55322;48.146;11.516;2023-03-20T12:18:00;4.65;;;1.33;;
68377;SDS011;55322;48.146;11.516;2023-03-20T12:20:33;4.32;;;0.93;;
68377;SDS011;55322;48.146;11.516;2023-03-20T12:25:39;3.37;;;0.60;;
68377;SDS011;55322;48.146;11.516;2023-03-20T12:31:10;3.40;;;0.70;;
68377;SDS011;55322;48.146;11.516;2023-03-20T12:36:16;3.47;;;0.80;;
68377;SDS011;55322;48.146;11.516;2023-03-20T12:38:49;3.80;;;0.90;;
68377;SDS011;55322;48.146;11.516;2023-03-20T12:41:15;3.88;;;0.80;;
68377;SDS011;55322;48.146;11.516;2023-03-20T12:49:45;4.00;;;0.80;;
68377;SDS011;55322;48.146;11.516;2023-03-20T12:52:24;3.80;;;0.70;;
68377;SDS011;55322;48.146;11.516;2023-03-20T13:00:04;3.40;;;0.70;;
68377;SDS011;55322;48.146;11.516;2023-03-20T13:02:52;4.43;;;0.82;;
68377;SDS011;55322;48.146;11.516;2023-03-20T13:08:45;4.38;;;0.75;;
68377;SDS011;55322;48.146;11.516;2023-03-20T13:11:54;3.93;;;0.77;;
68377;SDS011;55322;48.146;11.516;2023-03-20T13:31:42;4.30;;;0.95;;
68377;SDS011;55322;48.146;11.516;2023-03-20T13:36:49;4.15;;;0.90;;
68377;SDS011;55322;48.146;11.516;2023-03-20T13:39:32;3.53;;;0.80;;
68377;SDS011;55322;48.146;11.516;2023-03-20T13:42:01;4.72;;;1.02;;
68377;SDS011;55322;48.146;11.516;2023-03-20T13:44:30;4.45;;;1.00;;
68377;SDS011;55322;48.146;11.516;2023-03-20T13:46:59;3.97;;;1.05;;
68377;SDS011;55322;48.146;11.516;2023-03-20T13:52:21;3.50;;;0.80;;
68377;SDS011;55322;48.146;11.516;2023-03-20T13:55:51;3.72;;;0.80;;
68377;SDS011;55322;48.146;11.516;2023-03-20T14:00:51;4.20;;;0.70;;
68377;SDS011;55322;48.146;11.516;2023-03-20T14:03:28;3.80;;;1.00;;
68377;SDS011;55322;48.146;11.516;2023-03-20T14:05:57;3.53;;;0.90;;
68377;SDS011;55322;48.146;11.516;2023-03-20T14:11:03;4.50;;;0.90;;
68377;SDS011;55322;48.146;11.516;2023-03-20T14:13:29;3.95;;;0.90;;
68377;SDS011;55322;48.146;11.516;2023-03-20T14:15:55;4.07;;;0.90;;
68377;SDS011;55322;48.146;11.516;2023-03-20T14:18:24;3.97;;;0.98;;
68377;SDS011;55322;48.146;11.516;2023-03-20T14:20:55;3.55;;;0.80;;
68377;SDS011;55322;48.146;11.516;2023-03-20T14:23:36;3.83;;;0.87;;
68377;SDS011;55322;48.146;11.516;2023-03-20T14:26:05;3.85;;;0.85;;
68377;SDS011;55322;48.146;11.516;2023-03-20T14:28:57;3.80;;;0.90;;
68377;SDS011;55322;48.146;11.516;2023-03-20T14:31:24;3.70;;;0.80;;
68377;SDS011;55322;48.146;11.516;2023-03-20T14:34:19;4.22;;;1.10;;
68377;SDS011;55322;48.146;11.516;2023-03-20T14:39:24;3.78;;;0.95;;
68377;SDS011;55322;48.146;11.516;2023-03-20T14:52:41;5.68;;;1.10;;
68377;SDS011;55322;48.146;11.516;2023-03-20T14:57:46;4.10;;;0.90;;
68377;SDS011;55322;48.146;11.516;2023-03-20T15:02:52;3.90;;;0.93;;
68377;SDS011;55322;48.146;11.516;2023-03-20T15:05:27;4.00;;;1.00;;
68377;SDS011;55322;48.146;11.516;2023-03-20T15:08:01;4.30;;;0.90;;
68377;SDS011;55322;48.146;11.516;2023-03-20T15:10:31;3.88;;;0.85;;
68377;SDS011;55322;48.146;11.516;2023-03-20T15:12:58;4.63;;;1.05;;
68377;SDS011;55322;48.146;11.516;2023-03-20T15:15:25;4.30;;;0.90;;
68377;SDS011;55322;48.146;11.516;2023-03-20T15:17:52;3.53;;;0.90;;
68377;SDS011;55322;48.146;11.516;2023-03-20T15:20:19;3.40;;;0.77;;
68377;SDS011;55322;48.146;11.516;2023-03-20T15:22:52;4.72;;;1.00;;
68377;SDS011;55322;48.146;11.516;2023-03-20T15:25:18;4.00;;;0.90;;
68377;SDS011;55322;48.146;11.516;2023-03-20T15:27:45;4.00;;;0.80;;
68377;SDS011;55322;48.146;11.516;2023-03-20T15:30:15;4.37;;;0.90;;
68377;SDS011;55322;48.146;11.516;2023-03-20T15:32:43;6.55;;;1.00;;
68377;SDS011;55322;48.146;11.516;2023-03-20T15:35:10;3.50;;;0.70;;
68377;SDS011;55322;48.146;11.516;2023-03-20T15:37:39;4.07;;;0.70;;
68377;SDS011;55322;48.146;11.516;2023-03-20T15:40:11;3.78;;;0.77;;
68377;SDS011;55322;48.146;11.516;2023-03-20T15:42:42;4.07;;;0.77;;
68377;SDS011;55322;48.146;11.516;2023-03-20T15:45:21;4.43;;;1.40;;
68377;SDS011;55322;48.146;11.516;2023-03-20T15:47:50;4.10;;;0.82;;
68377;SDS011;55322;48.146;11.516;2023-03-20T15:50:22;4.00;;;0.80;;
68377;SDS011;55322;48.146;11.516;2023-03-20T15:52:48;4.07;;;0.73;;
68377;SDS011;55322;48.146;11.516;2023-03-20T15:55:18;3.37;;;0.70;;
68377;SDS011;55322;48.146;11.516;2023-03-20T15:57:46;3.60;;;0.70;;
68377;SDS011;55322;48.146;11.516;2023-03-20T16:00:33;3.70;;;0.80;;
68377;SDS011;55322;48.146;11.516;2023-03-20T16:03:04;3.92;;;0.70;;
68377;SDS011;55322;48.146;11.516;2023-03-20T16:05:32;5.55;;;0.90;;
68377;SDS011;55322;48.146;11.516;2023-03-20T16:08:21;6.93;;;0.90;;
68377;SDS011;55322;48.146;11.516;2023-03-20T16:10:44;6.88;;;0.80;;
68377;SDS011;55322;48.146;11.516;2023-03-20T16:13:11;3.87;;;0.63;;
68377;SDS011;55322;48.146;11.516;2023-03-20T16:15:41;4.30;;;0.80;;
68377;SDS011;55322;48.146;11.516;2023-03-20T16:18:06;4.50;;;0.90;;
68377;SDS011;55322;48.146;11.516;2023-03-20T16:20:36;5.20;;;1.10;;
68377;SDS011;55322;48.146;11.516;2023-03-20T16:23:06;3.70;;;0.73;;
68377;SDS011;55322;48.146;11.516;2023-03-20T16:25:33;4.25;;;1.20;;
68377;SDS011;55322;48.146;11.516;2023-03-20T16:28:00;4.85;;;1.10;;
68377;SDS011;55322;48.146;11.516;2023-03-20T16:30:30;3.55;;;0.80;;
68377;SDS011;55322;48.146;11.516;2023-03-20T16:32:58;3.53;;;0.70;;
68377;SDS011;55322;48.146;11.516;2023-03-20T16:35:26;4.97;;;0.90;;
68377;SDS011;55322;48.146;11.516;2023-03-20T16:37:58;3.97;;;0.75;;
68377;SDS011;55322;48.146;11.516;2023-03-20T16:40:29;3.40;;;0.70;;
68377;SDS011;55322;48.146;11.516;2023-03-20T16:45:39;3.97;;;0.70;;
68377;SDS011;55322;48.146;11.516;2023-03-20T16:50:35;4.82;;;0.85;;
68377;SDS011;55322;48.146;11.516;2023-03-20T16:53:02;5.65;;;0.90;;
68377;SDS011;55322;48.146;11.516;2023-03-20T16:55:35;4.30;;;0.80;;
68377;SDS011;55322;48.146;11.516;2023-03-20T16:58:05;3.70;;;0.80;;
68377;SDS011;55322;48.146;11.516;2023-03-20T17:00:32;5.88;;;1.27;;
68377;SDS011;55322;48.146;11.516;2023-03-20T17:03:15;5.03;;;0.98;;
68377;SDS011;55322;48.146;11.516;2023-03-20T17:05:47;7.70;;;1.20;;
68377;SDS011;55322;48.146;11.516;2023-03-20T17:08:15;5.28;;;0.90;;
68377;SDS011;55322;48.146;11.516;2023-03-20T17:10:48;5.75;;;1.15;;